createdAt,value
2022-11-22T00:00:39.018Z,22.00
2022-11-22T00:03:05.915Z,20.40
2022-11-22T00:05:32.702Z,22.35
2022-11-22T00:08:00.719Z,19.38
2022-11-22T00:10:27.536Z,22.00
2022-11-22T00:12:54.668Z,22.77
2022-11-22T00:15:21.389Z,21.88
2022-11-22T00:17:49.030Z,18.83
2022-11-22T00:20:15.893Z,19.30
2022-11-22T00:22:44.734Z,20.98
2022-11-22T00:25:11.805Z,19.90
2022-11-22T00:27:41.710Z,19.75
2022-11-22T00:30:09.128Z,20.65
2022-11-22T00:32:35.843Z,20.75
2022-11-22T00:35:03.007Z,19.05
2022-11-22T00:37:29.693Z,23.38
2022-11-22T00:39:56.371Z,20.70
2022-11-22T00:42:23.110Z,20.38
2022-11-22T00:44:49.806Z,20.45
2022-11-22T00:47:16.506Z,24.73
2022-11-22T00:49:43.125Z,20.08
2022-11-22T00:52:09.974Z,22.63
2022-11-22T00:54:36.724Z,20.25
2022-11-22T00:57:03.486Z,21.98
2022-11-22T00:59:30.557Z,20.95
2022-11-22T01:01:57.575Z,23.05
2022-11-22T01:04:24.265Z,22.58
2022-11-22T01:06:51.009Z,23.00
2022-11-22T01:09:20.652Z,22.90
2022-11-22T01:11:47.771Z,21.48
2022-11-22T01:14:15.137Z,21.38
2022-11-22T01:16:41.879Z,21.95
2022-11-22T01:19:08.824Z,21.25
2022-11-22T01:21:35.428Z,25.02
2022-11-22T01:24:02.136Z,22.58
2022-11-22T01:26:28.886Z,20.92
2022-11-22T01:28:56.615Z,22.77
2022-11-22T01:31:23.313Z,21.73
2022-11-22T01:33:49.988Z,23.42
2022-11-22T01:36:16.703Z,21.80
2022-11-22T01:38:43.379Z,24.00
2022-11-22T01:41:10.071Z,23.60
2022-11-22T01:43:39.938Z,27.30
2022-11-22T01:46:10.324Z,25.67
2022-11-22T01:48:47.394Z,26.30
2022-11-22T01:51:27.597Z,25.67
2022-11-22T01:53:57.370Z,25.08
2022-11-22T01:56:24.740Z,25.52
2022-11-22T01:58:56.672Z,25.33
2022-11-22T02:01:29.777Z,26.05
2022-11-22T02:04:00.830Z,25.75
2022-11-22T02:06:34.744Z,25.95
2022-11-22T02:09:09.402Z,25.23
2022-11-22T02:11:39.158Z,26.35
2022-11-22T02:14:09.611Z,25.88
2022-11-22T02:16:37.464Z,24.42
2022-11-22T02:19:05.268Z,24.52
2022-11-22T02:21:31.973Z,25.33
2022-11-22T02:24:07.804Z,25.17
2022-11-22T02:26:34.554Z,25.65
2022-11-22T02:29:04.865Z,27.85
2022-11-22T02:31:35.622Z,26.50
2022-11-22T02:34:02.398Z,23.95
2022-11-22T02:36:30.580Z,27.00
2022-11-22T02:38:57.296Z,28.48
2022-11-22T02:41:24.181Z,26.10
2022-11-22T02:43:51.002Z,26.02
2022-11-22T02:46:27.029Z,26.65
2022-11-22T02:48:53.745Z,24.38
2022-11-22T02:51:20.672Z,27.80
2022-11-22T02:53:49.335Z,25.55
2022-11-22T02:56:16.743Z,26.63
2022-11-22T02:58:44.107Z,27.13
2022-11-22T03:01:11.939Z,24.95
2022-11-22T03:03:38.708Z,26.90
2022-11-22T03:06:05.471Z,27.50
2022-11-22T03:08:33.486Z,25.23
2022-11-22T03:11:00.594Z,26.15
2022-11-22T03:13:27.320Z,26.38
2022-11-22T03:15:54.050Z,28.23
2022-11-22T03:18:20.784Z,25.73
2022-11-22T03:20:47.416Z,30.58
2022-11-22T03:23:14.054Z,25.77
2022-11-22T03:25:40.713Z,29.83
2022-11-22T03:28:07.859Z,29.30
2022-11-22T03:30:34.659Z,27.38
2022-11-22T03:33:04.364Z,26.88
2022-11-22T03:35:31.189Z,28.40
2022-11-22T03:37:57.868Z,27.30
2022-11-22T03:40:25.535Z,29.83
2022-11-22T03:42:52.197Z,29.88
2022-11-22T03:45:18.902Z,28.95
2022-11-22T03:47:45.539Z,29.83
2022-11-22T03:50:12.253Z,27.95
2022-11-22T03:52:38.952Z,27.65
2022-11-22T03:55:05.657Z,26.80
2022-11-22T03:57:32.342Z,29.02
2022-11-22T03:59:59.007Z,29.77
2022-11-22T04:02:25.731Z,29.88
2022-11-22T04:04:52.453Z,31.15
2022-11-22T04:07:19.117Z,30.02
2022-11-22T04:09:45.787Z,30.00
2022-11-22T04:12:12.511Z,28.67
2022-11-22T04:14:57.783Z,29.63
2022-11-22T04:17:45.151Z,29.23
2022-11-22T04:20:45.621Z,29.45
2022-11-22T04:23:14.588Z,30.35
2022-11-22T04:25:43.832Z,29.42
2022-11-22T04:28:11.687Z,30.30
2022-11-22T04:30:56.947Z,33.17
2022-11-22T04:33:23.806Z,32.00
2022-11-22T04:35:51.146Z,30.00
2022-11-22T04:38:18.299Z,33.28
2022-11-22T04:40:45.240Z,29.95
2022-11-22T04:43:41.091Z,29.08
2022-11-22T04:46:08.306Z,32.05
2022-11-22T04:48:35.254Z,33.40
2022-11-22T04:51:21.168Z,31.52
2022-11-22T04:53:47.950Z,34.50
2022-11-22T04:56:18.087Z,45.67
2022-11-22T04:58:44.759Z,35.97
2022-11-22T05:01:11.489Z,39.05
2022-11-22T05:03:38.161Z,36.22
2022-11-22T05:06:05.695Z,32.60
2022-11-22T05:08:32.813Z,38.75
2022-11-22T05:10:59.934Z,33.95
2022-11-22T05:13:28.287Z,35.97
2022-11-22T05:15:55.535Z,38.10
2022-11-22T05:18:23.144Z,38.88
2022-11-22T05:20:50.272Z,34.65
2022-11-22T05:23:36.111Z,35.92
2022-11-22T05:26:02.745Z,35.13
2022-11-22T05:28:31.094Z,34.70
2022-11-22T05:30:57.772Z,36.67
2022-11-22T05:33:24.524Z,39.92
2022-11-22T05:35:51.590Z,36.95
2022-11-22T05:38:18.378Z,38.83
2022-11-22T05:40:45.184Z,39.55
2022-11-22T05:43:11.844Z,41.75
2022-11-22T05:45:38.678Z,41.97
2022-11-22T05:48:05.490Z,44.53
2022-11-22T05:50:32.235Z,44.65
2022-11-22T05:53:03.225Z,43.00
2022-11-22T05:55:30.859Z,44.40
2022-11-22T05:58:01.599Z,42.78
2022-11-22T06:00:29.971Z,44.40
2022-11-22T06:03:01.722Z,44.70
2022-11-22T06:05:29.113Z,42.78
2022-11-22T06:08:03.104Z,46.33
2022-11-22T06:10:29.977Z,45.30
2022-11-22T06:12:56.752Z,48.80
2022-11-22T06:15:23.493Z,42.30
2022-11-22T06:17:50.472Z,48.13
2022-11-22T06:20:17.235Z,48.30
2022-11-22T06:22:44.037Z,46.08
2022-11-22T06:25:10.996Z,48.63
2022-11-22T06:27:37.628Z,47.20
2022-11-22T06:30:04.539Z,45.65
2022-11-22T06:32:33.854Z,45.33
2022-11-22T06:35:01.551Z,49.53
2022-11-22T06:37:28.990Z,48.35
2022-11-22T06:39:55.632Z,49.08
2022-11-22T06:42:22.235Z,48.13
2022-11-22T06:44:48.885Z,47.70
2022-11-22T06:47:17.636Z,47.50
2022-11-22T06:49:45.551Z,47.65
2022-11-22T06:52:12.415Z,48.20
2022-11-22T06:54:39.243Z,48.28
2022-11-22T06:57:05.905Z,44.72
2022-11-22T06:59:32.817Z,47.63
2022-11-22T07:02:05.789Z,46.03
2022-11-22T07:04:33.237Z,47.10
2022-11-22T07:06:59.847Z,43.83
2022-11-22T07:09:26.521Z,45.72
2022-11-22T07:11:53.224Z,44.80
2022-11-22T07:14:19.926Z,44.60
2022-11-22T07:16:46.507Z,42.78
2022-11-22T07:19:13.216Z,44.15
2022-11-22T07:21:39.984Z,44.05
2022-11-22T07:24:07.435Z,41.50
2022-11-22T07:26:34.052Z,40.83
2022-11-22T07:29:00.729Z,42.13
2022-11-22T07:31:28.355Z,42.03
2022-11-22T07:33:57.121Z,43.03
2022-11-22T07:36:24.139Z,45.03
2022-11-22T07:38:51.596Z,41.75
2022-11-22T07:41:19.997Z,40.25
2022-11-22T07:43:47.464Z,42.75
2022-11-22T07:46:32.164Z,38.90
2022-11-22T07:49:00.105Z,36.90
2022-11-22T07:51:27.748Z,38.17
2022-11-22T07:53:55.818Z,41.88
2022-11-22T07:56:22.634Z,37.70
2022-11-22T07:58:58.727Z,38.13
2022-11-22T08:01:27.576Z,39.60
2022-11-22T08:03:54.400Z,40.30
2022-11-22T08:06:21.169Z,38.03
2022-11-22T08:08:47.785Z,40.70
2022-11-22T08:11:14.509Z,39.15
2022-11-22T08:13:41.410Z,37.55
2022-11-22T08:16:15.457Z,40.05
2022-11-22T08:18:46.440Z,35.05
2022-11-22T08:21:14.703Z,41.85
2022-11-22T08:23:42.617Z,39.60
2022-11-22T08:26:12.686Z,41.17
2022-11-22T08:28:40.083Z,40.63
2022-11-22T08:31:09.398Z,37.70
2022-11-22T08:33:36.600Z,40.90
2022-11-22T08:36:03.415Z,37.40
2022-11-22T08:38:36.315Z,37.83
2022-11-22T08:41:04.300Z,38.28
2022-11-22T08:43:31.980Z,36.90
2022-11-22T08:45:59.615Z,39.28
2022-11-22T08:48:26.913Z,39.05
2022-11-22T08:50:58.823Z,39.08
2022-11-22T08:53:25.879Z,41.60
2022-11-22T08:55:53.396Z,39.83
2022-11-22T08:58:20.184Z,41.20
2022-11-22T09:00:46.961Z,40.88
2022-11-22T09:03:13.695Z,40.03
2022-11-22T09:08:29.013Z,42.70
2022-11-22T09:11:06.501Z,41.78
2022-11-22T09:13:33.681Z,44.00
2022-11-22T09:16:11.591Z,42.58
2022-11-22T09:18:38.863Z,42.22
2022-11-22T09:21:08.261Z,46.40
2022-11-22T09:23:35.543Z,49.22
2022-11-22T09:26:11.253Z,43.47
2022-11-22T09:28:37.918Z,45.78
2022-11-22T09:31:07.463Z,49.55
2022-11-22T09:33:35.605Z,47.15
2022-11-22T09:36:13.076Z,48.13
2022-11-22T09:38:40.329Z,45.33
2022-11-22T09:41:16.344Z,50.88
2022-11-22T09:44:00.438Z,44.58
2022-11-22T09:46:47.443Z,44.90
2022-11-22T09:49:24.219Z,43.97
2022-11-22T09:52:15.790Z,46.83
2022-11-22T09:54:52.260Z,43.10
2022-11-22T09:57:23.896Z,38.88
2022-11-22T10:00:04.033Z,43.30
2022-11-22T10:03:00.018Z,41.28
2022-11-22T10:05:42.725Z,40.45
2022-11-22T10:08:27.961Z,41.17
2022-11-22T10:10:56.157Z,38.38
2022-11-22T10:13:30.325Z,42.28
2022-11-22T10:16:28.090Z,39.33
2022-11-22T10:19:01.168Z,46.85
2022-11-22T10:21:27.879Z,42.25
2022-11-22T10:23:54.761Z,42.42
2022-11-22T10:26:25.730Z,39.97
2022-11-22T10:29:07.285Z,44.10
2022-11-22T10:31:43.366Z,46.13
2022-11-22T10:34:17.128Z,47.97
2022-11-22T10:36:47.027Z,43.13
2022-11-22T10:39:19.769Z,45.85
2022-11-22T10:42:05.453Z,46.25
2022-11-22T10:44:47.378Z,41.85
2022-11-22T10:47:41.557Z,45.78
2022-11-22T10:50:17.181Z,41.35
2022-11-22T10:52:56.370Z,41.40
2022-11-22T10:55:35.409Z,45.17
2022-11-22T10:58:34.506Z,44.47
2022-11-22T11:01:30.967Z,38.42
2022-11-22T11:03:59.526Z,41.25
2022-11-22T11:07:10.372Z,43.15
2022-11-22T11:12:20.099Z,44.47
2022-11-22T11:14:49.972Z,41.97
2022-11-22T11:17:27.803Z,43.90
2022-11-22T11:19:58.098Z,41.55
2022-11-22T11:22:58.723Z,47.42
2022-11-22T11:25:40.826Z,45.75
2022-11-22T11:28:11.375Z,45.30
2022-11-22T11:30:50.147Z,42.30
2022-11-22T11:33:20.639Z,44.40
2022-11-22T11:35:47.757Z,46.22
2022-11-22T11:38:50.399Z,45.03
2022-11-22T11:41:41.932Z,43.78
2022-11-22T11:44:25.807Z,43.30
2022-11-22T11:46:52.541Z,43.13
2022-11-22T11:49:23.785Z,39.65
2022-11-22T11:52:10.271Z,43.53
2022-11-22T11:54:45.030Z,43.03
2022-11-22T11:57:23.352Z,41.10
2022-11-22T11:59:50.477Z,44.08
2022-11-22T12:02:26.728Z,41.72
2022-11-22T12:05:04.069Z,37.35
2022-11-22T12:07:34.085Z,43.70
2022-11-22T12:10:01.412Z,43.08
2022-11-22T12:12:46.959Z,43.10
2022-11-22T12:15:21.513Z,43.95
2022-11-22T12:18:23.264Z,43.58
2022-11-22T12:21:03.399Z,40.75
2022-11-22T12:23:45.471Z,43.17
2022-11-22T12:26:16.466Z,42.78
2022-11-22T12:28:43.451Z,45.53
2022-11-22T12:31:27.866Z,44.13
2022-11-22T12:34:01.160Z,43.50
2022-11-22T12:36:40.226Z,44.78
2022-11-22T12:39:11.718Z,44.85
2022-11-22T12:41:40.395Z,39.85
2022-11-22T12:44:12.237Z,40.13
2022-11-22T12:46:50.538Z,42.67
2022-11-22T12:49:32.317Z,42.30
2022-11-22T12:52:25.910Z,41.38
2022-11-22T12:55:16.960Z,40.33
2022-11-22T12:58:05.262Z,36.17
2022-11-22T13:00:36.451Z,43.55
2022-11-22T13:03:13.535Z,42.30
2022-11-22T13:05:45.132Z,40.50
2022-11-22T13:08:19.532Z,39.35
2022-11-22T13:10:53.734Z,40.50
2022-11-22T13:13:27.630Z,41.20
2022-11-22T13:15:56.024Z,42.13
2022-11-22T13:18:33.144Z,36.92
2022-11-22T13:21:11.459Z,39.70
2022-11-22T13:24:12.040Z,40.28
2022-11-22T13:27:10.089Z,37.03
2022-11-22T13:29:37.227Z,40.42
2022-11-22T13:32:16.613Z,36.80
2022-11-22T13:35:01.082Z,38.05
2022-11-22T13:37:32.975Z,41.17
2022-11-22T13:40:11.509Z,39.40
2022-11-22T13:42:38.603Z,38.30
2022-11-22T13:45:20.746Z,41.22
2022-11-22T13:47:47.708Z,40.33
2022-11-22T13:50:44.504Z,39.47
2022-11-22T13:53:24.104Z,37.35
2022-11-22T13:55:50.957Z,39.05
2022-11-22T13:58:27.045Z,37.40
2022-11-22T14:00:55.164Z,41.97
2022-11-22T14:03:38.108Z,38.42
2022-11-22T14:06:29.156Z,38.92
2022-11-22T14:09:27.462Z,38.13
2022-11-22T14:11:57.395Z,39.28
2022-11-22T14:14:55.068Z,35.30
2022-11-22T14:17:51.283Z,36.90
2022-11-22T14:20:30.172Z,38.40
2022-11-22T14:23:18.626Z,37.33
2022-11-22T14:26:30.417Z,38.35
2022-11-22T14:29:28.054Z,34.67
2022-11-22T14:32:11.203Z,35.13
2022-11-22T14:35:03.729Z,36.38
2022-11-22T14:37:33.867Z,32.45
2022-11-22T14:40:06.593Z,35.08
2022-11-22T14:42:40.151Z,35.75
2022-11-22T14:45:10.263Z,37.25
2022-11-22T14:47:59.951Z,35.90
2022-11-22T14:50:28.600Z,35.60
2022-11-22T14:53:04.614Z,35.13
2022-11-22T14:55:33.040Z,32.78
2022-11-22T14:58:06.828Z,34.92
2022-11-22T15:00:41.964Z,33.22
2022-11-22T15:03:30.436Z,34.58
2022-11-22T15:09:11.391Z,35.78
2022-11-22T15:09:52.433Z,33.58
2022-11-22T15:12:27.204Z,35.33
2022-11-22T15:59:44.356Z,31.98
2022-11-22T16:02:18.384Z,31.92
2022-11-22T16:06:06.252Z,32.38
2022-11-22T16:07:39.600Z,35.90
2022-11-22T16:10:16.987Z,34.25
2022-11-22T16:12:47.527Z,37.78
2022-11-22T16:15:28.386Z,36.80
2022-11-22T16:18:07.792Z,36.08
2022-11-22T16:20:39.679Z,38.22
2022-11-22T16:23:09.088Z,36.38
2022-11-22T16:25:41.984Z,38.60
2022-11-22T16:28:44.027Z,36.92
2022-11-22T16:31:21.676Z,36.13
2022-11-22T16:33:48.981Z,34.83
2022-11-22T16:36:16.926Z,39.45
2022-11-22T16:38:44.176Z,34.78
2022-11-22T16:41:25.517Z,38.45
2022-11-22T16:43:54.436Z,40.42
2022-11-22T16:46:21.494Z,36.83
2022-11-22T16:48:48.347Z,37.42
2022-11-22T16:51:21.277Z,39.30
2022-11-22T16:54:16.540Z,41.03
2022-11-22T16:56:49.413Z,38.70
2022-11-22T16:59:16.274Z,37.20
2022-11-22T17:01:44.226Z,40.53
2022-11-22T17:04:25.442Z,38.75
2022-11-22T17:06:52.459Z,41.50
2022-11-22T17:09:21.984Z,40.67
2022-11-22T17:11:49.586Z,39.85
2022-11-22T17:14:18.376Z,39.97
2022-11-22T17:16:48.298Z,38.85
2022-11-22T17:19:52.008Z,39.30
2022-11-22T17:22:06.941Z,43.10
2022-11-22T17:24:34.605Z,41.70
2022-11-22T17:27:01.553Z,37.28
2022-11-22T17:29:49.255Z,44.40
2022-11-22T17:32:15.115Z,42.28
2022-11-22T17:34:42.205Z,44.53
2022-11-22T17:37:12.760Z,41.45
2022-11-22T17:39:40.194Z,41.47
2022-11-22T17:42:07.345Z,41.53
2022-11-22T17:44:35.105Z,43.50
2022-11-22T17:47:33.079Z,44.75
2022-11-22T17:50:05.339Z,40.38
2022-11-22T17:52:32.300Z,46.13
2022-11-22T17:55:05.563Z,46.58
2022-11-22T17:57:34.022Z,40.80
2022-11-22T18:00:00.729Z,41.05
2022-11-22T18:02:27.542Z,45.60
2022-11-22T18:04:55.801Z,42.58
2022-11-22T18:07:24.251Z,44.58
2022-11-22T18:09:51.706Z,43.15
2022-11-22T18:12:19.032Z,46.95
2022-11-22T18:14:47.307Z,49.55
2022-11-22T18:17:14.534Z,51.00
2022-11-22T18:19:41.194Z,47.65
2022-11-22T18:22:08.051Z,42.63
2022-11-22T18:24:35.034Z,45.95
2022-11-22T18:27:02.622Z,42.47
2022-11-22T18:29:44.850Z,44.50
2022-11-22T18:32:11.962Z,50.00
2022-11-22T18:34:39.047Z,47.92
2022-11-22T18:37:05.960Z,49.97
2022-11-22T18:39:38.221Z,47.28
2022-11-22T18:42:07.944Z,46.72
2022-11-22T18:44:35.724Z,51.15
2022-11-22T18:47:02.592Z,46.97
2022-11-22T18:49:29.914Z,45.08
2022-11-22T18:51:57.076Z,47.08
2022-11-22T18:54:23.819Z,47.47
2022-11-22T18:56:51.616Z,51.78
2022-11-22T18:59:18.652Z,54.25
2022-11-22T19:01:45.571Z,46.97
2022-11-22T19:04:14.414Z,51.05
2022-11-22T19:06:42.107Z,51.97
2022-11-22T19:09:08.965Z,50.95
2022-11-22T19:11:35.841Z,51.17
2022-11-22T19:14:02.809Z,49.92
2022-11-22T19:16:30.482Z,53.85
2022-11-22T19:18:58.937Z,49.47
2022-11-22T19:21:28.069Z,49.80
2022-11-22T19:23:55.847Z,49.60
2022-11-22T19:26:24.653Z,55.53
2022-11-22T19:28:56.570Z,52.30
2022-11-22T19:31:29.303Z,55.53
2022-11-22T19:33:57.464Z,54.65
2022-11-22T19:36:32.168Z,49.22
2022-11-22T19:38:59.281Z,51.72
2022-11-22T19:41:26.005Z,56.20
2022-11-22T19:43:52.782Z,53.53
2022-11-22T19:46:20.113Z,54.72
2022-11-22T19:48:51.725Z,53.67
2022-11-22T19:51:18.633Z,50.60
2022-11-22T19:53:45.315Z,54.03
2022-11-22T19:56:17.825Z,52.38
2022-11-22T19:58:50.443Z,51.40
2022-11-22T20:01:17.551Z,55.75
2022-11-22T20:03:45.078Z,53.78
2022-11-22T20:06:13.605Z,49.88
2022-11-22T20:08:40.496Z,49.20
2022-11-22T20:11:09.480Z,56.90
2022-11-22T20:13:38.419Z,49.60
2022-11-22T20:16:08.489Z,50.60
2022-11-22T20:18:35.529Z,48.75
2022-11-22T20:21:03.998Z,49.17
2022-11-22T20:23:32.236Z,50.05
2022-11-22T20:26:09.218Z,46.80
2022-11-22T20:28:39.992Z,46.53
2022-11-22T20:31:14.454Z,52.10
2022-11-22T20:33:44.016Z,49.05
2022-11-22T20:36:14.071Z,51.30
2022-11-22T20:38:41.956Z,52.30
2022-11-22T20:41:10.247Z,54.55
2022-11-22T20:43:37.462Z,106.07
2022-11-22T20:46:09.939Z,59.40
2022-11-22T20:48:37.836Z,79.78
2022-11-22T20:51:07.927Z,54.08
2022-11-22T20:53:35.302Z,46.35
2022-11-22T20:56:02.476Z,47.67
2022-11-22T20:58:32.368Z,53.03
2022-11-22T21:00:59.194Z,52.95
2022-11-22T21:03:27.478Z,49.75
2022-11-22T21:05:55.238Z,57.35
2022-11-22T21:08:22.833Z,44.40
2022-11-22T21:10:49.632Z,48.97
2022-11-22T21:13:17.371Z,50.67
2022-11-22T21:15:44.667Z,48.55
2022-11-22T21:18:27.613Z,47.45
2022-11-22T21:20:54.245Z,45.72
2022-11-22T21:23:21.385Z,48.75
2022-11-22T21:25:51.564Z,96.93
2022-11-22T21:28:18.492Z,54.05
2022-11-22T21:30:45.267Z,56.17
2022-11-22T21:33:12.434Z,48.30
2022-11-22T21:35:39.262Z,51.78
2022-11-22T21:38:06.075Z,47.78
2022-11-22T21:40:33.000Z,55.80
2022-11-22T21:42:59.766Z,47.28
2022-11-22T21:45:26.598Z,48.15
2022-11-22T21:47:53.278Z,46.65
2022-11-22T21:50:20.590Z,44.92
2022-11-22T21:52:47.306Z,47.38
2022-11-22T21:55:15.546Z,45.22
2022-11-22T21:57:42.278Z,41.60
2022-11-22T22:00:10.145Z,48.33
2022-11-22T22:02:36.842Z,45.63
2022-11-22T22:05:03.713Z,45.45
2022-11-22T22:07:51.398Z,44.85
2022-11-22T22:10:17.325Z,45.88
2022-11-22T22:12:44.813Z,47.90
2022-11-22T22:15:14.928Z,49.38
2022-11-22T22:17:41.854Z,48.05
2022-11-22T22:20:08.985Z,49.28
2022-11-22T22:22:38.719Z,47.63
2022-11-22T22:25:06.429Z,49.15
2022-11-22T22:27:33.491Z,44.25
2022-11-22T22:30:00.707Z,46.33
2022-11-22T22:32:28.036Z,47.22
2022-11-22T22:34:54.976Z,43.80
2022-11-22T22:37:21.726Z,40.67
2022-11-22T22:39:50.652Z,47.90
2022-11-22T22:42:19.429Z,45.70
2022-11-22T22:44:46.442Z,47.75
2022-11-22T22:47:13.611Z,46.47
2022-11-22T22:49:40.464Z,45.80
2022-11-22T22:52:07.245Z,44.17
2022-11-22T22:54:34.068Z,47.60
2022-11-22T22:57:01.083Z,49.22
2022-11-22T22:59:31.346Z,49.65
2022-11-22T23:01:58.169Z,48.00
2022-11-22T23:04:24.951Z,45.92
2022-11-22T23:06:51.603Z,47.90
2022-11-22T23:09:18.544Z,49.40
2022-11-22T23:12:04.039Z,47.05
2022-11-22T23:14:33.773Z,49.15
2022-11-22T23:17:00.549Z,51.53
2022-11-22T23:19:27.770Z,48.78
2022-11-22T23:21:55.454Z,45.67
2022-11-22T23:24:22.207Z,46.00
2022-11-22T23:26:48.887Z,47.95
2022-11-22T23:29:18.690Z,45.97
2022-11-22T23:31:45.403Z,47.95
2022-11-22T23:34:13.450Z,50.85
2022-11-22T23:36:41.266Z,48.05
2022-11-22T23:39:11.757Z,45.30
2022-11-22T23:41:38.412Z,52.15
2022-11-22T23:44:05.305Z,46.40
2022-11-22T23:46:32.425Z,42.70
2022-11-22T23:49:00.469Z,50.42
2022-11-22T23:51:28.550Z,45.03
2022-11-22T23:53:57.099Z,48.70
2022-11-22T23:56:24.208Z,51.13
2022-11-22T23:58:51.553Z,55.10
